createdAt,value
2018-11-29T00:00:40.580Z,1023.08
2018-11-29T00:01:40.545Z,1023.09
2018-11-29T00:02:40.541Z,1023.06
2018-11-29T00:03:40.527Z,1023.11
2018-11-29T00:04:40.514Z,1023.17
2018-11-29T00:05:40.546Z,1023.20
2018-11-29T00:06:40.489Z,1023.16
2018-11-29T00:07:40.483Z,1023.15
2018-11-29T00:08:40.463Z,1023.07
2018-11-29T00:09:40.459Z,1023.10
2018-11-29T00:10:40.447Z,1023.08
2018-11-29T00:11:40.461Z,1023.02
2018-11-29T00:12:40.422Z,1023.03
2018-11-29T00:13:40.421Z,1023.02
2018-11-29T00:14:40.404Z,1023.02
2018-11-29T00:15:40.392Z,1023.08
2018-11-29T00:16:40.402Z,1023.11
2018-11-29T00:17:40.377Z,1023.14
2018-11-29T00:18:40.362Z,1023.12
2018-11-29T00:19:40.738Z,1023.14
2018-11-29T00:20:40.341Z,1023.12
2018-11-29T00:21:40.349Z,1023.07
2018-11-29T00:22:40.322Z,1023.04
2018-11-29T00:23:40.307Z,1023.04
2018-11-29T00:24:40.296Z,1023.06
2018-11-29T00:25:40.296Z,1023.06
2018-11-29T00:26:40.288Z,1023.12
2018-11-29T00:27:40.268Z,1023.03
2018-11-29T00:28:40.249Z,1022.98
2018-11-29T00:29:40.238Z,1022.92
2018-11-29T00:30:40.235Z,1022.98
2018-11-29T00:31:40.240Z,1022.94
2018-11-29T00:32:40.211Z,1022.90
2018-11-29T00:33:40.194Z,1022.91
2018-11-29T00:34:40.184Z,1022.87
2018-11-29T00:35:40.177Z,1022.84
2018-11-29T00:36:40.188Z,1022.83
2018-11-29T00:37:40.155Z,1022.81
2018-11-29T00:38:40.145Z,1022.83
2018-11-29T00:39:40.133Z,1022.85
2018-11-29T00:40:40.118Z,1022.95
2018-11-29T00:41:40.135Z,1022.97
2018-11-29T00:42:40.106Z,1022.94
2018-11-29T00:43:40.082Z,1022.95
2018-11-29T00:44:40.077Z,1022.95
2018-11-29T00:45:40.062Z,1022.91
2018-11-29T00:46:40.078Z,1022.91
2018-11-29T00:47:40.045Z,1022.86
2018-11-29T00:48:40.041Z,1022.91
2018-11-29T00:49:40.021Z,1022.93
2018-11-29T00:50:40.010Z,1022.96
2018-11-29T00:51:40.025Z,1022.96
2018-11-29T00:52:39.992Z,1022.95
2018-11-29T00:53:39.985Z,1022.93
2018-11-29T00:54:39.965Z,1022.92
2018-11-29T00:55:39.956Z,1022.80
2018-11-29T00:56:39.945Z,1022.83
2018-11-29T00:57:39.962Z,1022.80
2018-11-29T00:58:39.924Z,1022.81
2018-11-29T00:59:39.921Z,1022.85
2018-11-29T01:00:39.907Z,1022.83
2018-11-29T01:01:39.897Z,1022.81
2018-11-29T01:02:39.896Z,1022.88
2018-11-29T01:03:39.874Z,1022.89
2018-11-29T01:04:39.859Z,1022.93
2018-11-29T01:05:39.861Z,1022.96
2018-11-29T01:06:39.844Z,1022.97
2018-11-29T01:07:39.843Z,1022.98
2018-11-29T01:08:39.815Z,1022.93
2018-11-29T01:09:39.805Z,1022.90
2018-11-29T01:10:39.799Z,1022.87
2018-11-29T01:11:39.794Z,1022.83
2018-11-29T01:12:39.805Z,1022.84
2018-11-29T01:13:39.762Z,1022.86
2018-11-29T01:14:39.751Z,1022.86
2018-11-29T01:15:39.743Z,1022.81
2018-11-29T01:16:39.738Z,1022.83
2018-11-29T01:17:39.742Z,1022.84
2018-11-29T01:18:39.711Z,1022.85
2018-11-29T01:19:39.697Z,1022.90
2018-11-29T01:20:39.687Z,1022.85
2018-11-29T01:21:39.676Z,1022.89
2018-11-29T01:22:39.683Z,1022.87
2018-11-29T01:23:39.653Z,1022.88
2018-11-29T01:24:39.663Z,1022.86
2018-11-29T01:25:39.634Z,1022.86
2018-11-29T01:26:39.623Z,1022.86
2018-11-29T01:27:39.637Z,1022.89
2018-11-29T01:28:39.616Z,1022.90
2018-11-29T01:29:39.589Z,1022.88
2018-11-29T01:30:39.581Z,1022.92
2018-11-29T01:31:39.563Z,1022.87
2018-11-29T01:32:39.575Z,1022.81
2018-11-29T01:33:39.551Z,1022.77
2018-11-29T01:34:39.541Z,1022.80
2018-11-29T01:35:39.526Z,1022.74
2018-11-29T01:36:39.508Z,1022.74
2018-11-29T01:37:39.535Z,1022.68
2018-11-29T01:38:39.492Z,1022.69
2018-11-29T01:39:39.481Z,1022.70
2018-11-29T01:40:39.471Z,1022.73
2018-11-29T01:41:39.454Z,1022.70
2018-11-29T01:42:39.445Z,1022.71
2018-11-29T01:43:39.454Z,1022.71
2018-11-29T01:44:39.428Z,1022.64
2018-11-29T01:45:39.420Z,1022.69
2018-11-29T01:46:39.408Z,1022.66
2018-11-29T01:47:39.392Z,1022.58
2018-11-29T01:48:39.402Z,1022.62
2018-11-29T01:49:39.370Z,1022.52
2018-11-29T01:50:39.368Z,1022.48
2018-11-29T01:51:39.362Z,1022.45
2018-11-29T01:52:39.341Z,1022.44
2018-11-29T01:53:39.356Z,1022.37
2018-11-29T01:54:39.316Z,1022.37
2018-11-29T01:55:39.308Z,1022.28
2018-11-29T01:56:39.296Z,1022.33
2018-11-29T01:57:39.292Z,1022.38
2018-11-29T01:58:39.299Z,1022.29
2018-11-29T01:59:39.263Z,1022.31
2018-11-29T02:00:39.254Z,1022.36
2018-11-29T02:01:39.245Z,1022.30
2018-11-29T02:02:39.230Z,1022.29
2018-11-29T02:03:39.244Z,1022.27
2018-11-29T02:04:39.208Z,1022.22
2018-11-29T02:05:39.200Z,1022.21
2018-11-29T02:06:39.184Z,1022.16
2018-11-29T02:07:39.188Z,1022.16
2018-11-29T02:08:39.195Z,1022.13
2018-11-29T02:09:39.167Z,1022.17
2018-11-29T02:10:39.142Z,1022.18
2018-11-29T02:11:39.152Z,1022.23
2018-11-29T02:12:39.120Z,1022.20
2018-11-29T02:13:39.135Z,1022.22
2018-11-29T02:14:39.100Z,1022.22
2018-11-29T02:15:39.094Z,1022.24
2018-11-29T02:16:39.078Z,1022.20
2018-11-29T02:17:39.066Z,1022.15
2018-11-29T02:18:39.082Z,1022.11
2018-11-29T02:19:39.069Z,1022.08
2018-11-29T02:20:39.049Z,1022.07
2018-11-29T02:21:39.024Z,1021.99
2018-11-29T02:22:39.010Z,1021.98
2018-11-29T02:23:39.029Z,1021.96
2018-11-29T02:24:38.994Z,1021.94
2018-11-29T02:25:38.986Z,1021.92
2018-11-29T02:26:39.001Z,1021.90
2018-11-29T02:27:38.956Z,1021.94
2018-11-29T02:28:38.965Z,1021.87
2018-11-29T02:29:38.944Z,1021.87
2018-11-29T02:30:38.925Z,1021.81
2018-11-29T02:31:38.913Z,1021.85
2018-11-29T02:32:38.908Z,1021.81
2018-11-29T02:33:38.915Z,1021.79
2018-11-29T02:34:38.880Z,1021.74
2018-11-29T02:35:38.872Z,1021.71
2018-11-29T02:36:38.862Z,1021.72
2018-11-29T02:37:38.846Z,1021.70
2018-11-29T02:38:38.859Z,1021.75
2018-11-29T02:39:38.839Z,1021.73
2018-11-29T02:40:38.823Z,1021.75
2018-11-29T02:41:38.846Z,1021.72
2018-11-29T02:42:38.798Z,1021.78
2018-11-29T02:43:38.818Z,1021.78
2018-11-29T02:44:38.790Z,1021.73
2018-11-29T02:45:38.764Z,1021.77
2018-11-29T02:46:38.752Z,1021.68
2018-11-29T02:47:38.754Z,1021.74
2018-11-29T02:48:38.807Z,1021.68
2018-11-29T02:49:38.736Z,1021.74
2018-11-29T02:50:38.711Z,1021.69
2018-11-29T02:51:38.696Z,1021.65
2018-11-29T02:52:38.688Z,1021.67
2018-11-29T02:53:38.687Z,1021.69
2018-11-29T02:54:38.693Z,1021.70
2018-11-29T02:55:38.665Z,1021.76
2018-11-29T02:56:38.649Z,1021.81
2018-11-29T02:57:38.640Z,1021.80
2018-11-29T02:58:38.625Z,1021.74
2018-11-29T02:59:38.639Z,1021.82
2018-11-29T03:00:38.600Z,1021.80
2018-11-29T03:01:38.596Z,1021.81
2018-11-29T03:02:38.587Z,1021.83
2018-11-29T03:03:38.574Z,1021.85
2018-11-29T03:04:38.588Z,1021.90
2018-11-29T03:05:38.556Z,1021.90
2018-11-29T03:06:38.541Z,1021.88
2018-11-29T03:07:38.529Z,1021.91
2018-11-29T03:08:38.516Z,1021.90
2018-11-29T03:09:38.524Z,1021.87
2018-11-29T03:10:38.496Z,1021.89
2018-11-29T03:11:38.485Z,1021.88
2018-11-29T03:12:38.474Z,1021.87
2018-11-29T03:13:38.467Z,1021.91
2018-11-29T03:14:38.472Z,1021.87
2018-11-29T03:15:38.443Z,1021.82
2018-11-29T03:16:38.426Z,1021.80
2018-11-29T03:17:38.416Z,1021.77
2018-11-29T03:18:38.413Z,1021.75
2018-11-29T03:19:38.418Z,1021.70
2018-11-29T03:20:38.385Z,1021.72
2018-11-29T03:21:38.378Z,1021.69
2018-11-29T03:22:38.368Z,1021.69
2018-11-29T03:23:38.350Z,1021.67
2018-11-29T03:24:38.358Z,1021.74
2018-11-29T03:25:38.345Z,1021.74
2018-11-29T03:26:38.318Z,1021.70
2018-11-29T03:27:38.305Z,1021.69
2018-11-29T03:28:38.314Z,1021.65
2018-11-29T03:29:38.308Z,1021.65
2018-11-29T03:30:38.283Z,1021.64
2018-11-29T03:31:38.272Z,1021.57
2018-11-29T03:32:38.251Z,1021.63
2018-11-29T03:33:38.247Z,1021.66
2018-11-29T03:34:38.257Z,1021.70
2018-11-29T03:35:38.223Z,1021.73
2018-11-29T03:36:38.216Z,1021.69
2018-11-29T03:37:38.211Z,1021.82
2018-11-29T03:38:38.185Z,1021.77
2018-11-29T03:39:38.209Z,1021.78
2018-11-29T03:40:38.166Z,1021.74
2018-11-29T03:41:38.157Z,1021.75
2018-11-29T03:42:38.153Z,1021.74
2018-11-29T03:43:38.135Z,1021.77
2018-11-29T03:44:38.155Z,1021.75
2018-11-29T03:45:38.115Z,1021.80
2018-11-29T03:46:38.103Z,1021.82
2018-11-29T03:47:38.099Z,1021.82
2018-11-29T03:48:38.076Z,1021.82
2018-11-29T03:49:38.077Z,1021.81
2018-11-29T03:50:38.080Z,1021.79
2018-11-29T03:51:38.052Z,1021.82
2018-11-29T03:52:38.039Z,1021.80
2018-11-29T03:53:38.035Z,1021.80
2018-11-29T03:54:38.034Z,1021.85
2018-11-29T03:55:38.028Z,1021.85
2018-11-29T03:56:37.998Z,1021.84
2018-11-29T03:57:37.988Z,1021.73
2018-11-29T03:58:37.971Z,1021.80
2018-11-29T03:59:37.966Z,1021.76
2018-11-29T04:00:37.970Z,1021.78
2018-11-29T04:01:37.945Z,1021.75
2018-11-29T04:02:37.930Z,1021.69
2018-11-29T04:03:37.918Z,1021.72
2018-11-29T04:04:37.908Z,1021.73
2018-11-29T04:05:37.920Z,1021.70
2018-11-29T04:06:37.888Z,1021.67
2018-11-29T04:07:37.881Z,1021.66
2018-11-29T04:08:37.862Z,1021.64
2018-11-29T04:09:37.856Z,1021.62
2018-11-29T04:10:37.870Z,1021.56
2018-11-29T04:11:37.842Z,1021.54
2018-11-29T04:12:37.821Z,1021.54
2018-11-29T04:13:37.822Z,1021.54
2018-11-29T04:14:37.798Z,1021.51
2018-11-29T04:15:37.810Z,1021.54
2018-11-29T04:16:37.782Z,1021.63
2018-11-29T04:17:40.787Z,1021.65
2018-11-29T04:18:37.758Z,1021.62
2018-11-29T04:19:37.745Z,1021.62
2018-11-29T04:20:37.760Z,1021.66
2018-11-29T04:21:37.724Z,1021.66
2018-11-29T04:22:37.715Z,1021.70
2018-11-29T04:23:37.704Z,1021.56
2018-11-29T04:24:37.692Z,1021.59
2018-11-29T04:25:37.703Z,1021.53
2018-11-29T04:26:37.672Z,1021.49
2018-11-29T04:27:37.659Z,1021.46
2018-11-29T04:28:37.646Z,1021.42
2018-11-29T04:29:37.638Z,1021.38
2018-11-29T04:30:37.644Z,1021.34
2018-11-29T04:31:37.614Z,1021.31
2018-11-29T04:32:37.614Z,1021.33
2018-11-29T04:33:37.595Z,1021.37
2018-11-29T04:34:37.594Z,1021.37
2018-11-29T04:35:37.600Z,1021.42
2018-11-29T04:36:37.565Z,1021.40
2018-11-29T04:37:37.551Z,1021.35
2018-11-29T04:38:37.555Z,1021.36
2018-11-29T04:39:37.528Z,1021.39
2018-11-29T04:40:37.540Z,1021.42
2018-11-29T04:41:37.504Z,1021.44
2018-11-29T04:42:37.498Z,1021.45
2018-11-29T04:43:37.484Z,1021.49
2018-11-29T04:44:37.471Z,1021.50
2018-11-29T04:45:37.499Z,1021.58
2018-11-29T04:46:37.462Z,1021.62
2018-11-29T04:47:37.442Z,1021.58
2018-11-29T04:48:37.430Z,1021.62
2018-11-29T04:49:37.425Z,1021.61
2018-11-29T04:50:37.410Z,1021.60
2018-11-29T04:51:37.417Z,1021.53
2018-11-29T04:52:37.386Z,1021.53
2018-11-29T04:53:37.376Z,1021.47
2018-11-29T04:54:37.368Z,1021.51
2018-11-29T04:55:37.358Z,1021.50
2018-11-29T04:56:37.358Z,1021.50
2018-11-29T04:57:37.336Z,1021.46
2018-11-29T04:58:37.325Z,1021.44
2018-11-29T04:59:37.310Z,1021.39
2018-11-29T05:00:37.301Z,1021.39
2018-11-29T05:01:37.310Z,1021.36
2018-11-29T05:02:37.276Z,1021.31
2018-11-29T05:03:37.274Z,1021.21
2018-11-29T05:04:37.269Z,1021.20
2018-11-29T05:05:37.248Z,1021.19
2018-11-29T05:06:37.252Z,1021.26
2018-11-29T05:07:37.225Z,1021.28
2018-11-29T05:08:37.219Z,1021.24
2018-11-29T05:09:37.214Z,1021.25
2018-11-29T05:10:37.192Z,1021.27
2018-11-29T05:11:37.253Z,1021.24
2018-11-29T05:12:37.171Z,1021.34
2018-11-29T05:13:37.159Z,1021.31
2018-11-29T05:14:37.219Z,1021.30
2018-11-29T05:15:37.137Z,1021.32
2018-11-29T05:16:37.156Z,1021.37
2018-11-29T05:17:37.114Z,1021.35
2018-11-29T05:18:37.116Z,1021.38
2018-11-29T05:19:37.097Z,1021.39
2018-11-29T05:20:37.096Z,1021.34
2018-11-29T05:21:37.099Z,1021.33
2018-11-29T05:22:37.068Z,1021.36
2018-11-29T05:23:37.052Z,1021.32
2018-11-29T05:24:37.052Z,1021.29
2018-11-29T05:25:37.034Z,1021.23
2018-11-29T05:26:37.039Z,1021.17
2018-11-29T05:27:37.030Z,1021.20
2018-11-29T05:28:37.020Z,1021.18
2018-11-29T05:29:36.992Z,1021.08
2018-11-29T05:30:36.980Z,1021.10
2018-11-29T05:31:36.994Z,1021.08
2018-11-29T05:32:36.956Z,1021.06
2018-11-29T05:33:36.949Z,1021.12
2018-11-29T05:34:36.936Z,1021.19
2018-11-29T05:35:36.926Z,1021.16
2018-11-29T05:36:36.936Z,1021.11
2018-11-29T05:37:36.900Z,1021.13
2018-11-29T05:38:36.896Z,1021.15
2018-11-29T05:39:36.882Z,1021.11
2018-11-29T05:40:36.864Z,1021.09
2018-11-29T05:41:36.882Z,1021.12
2018-11-29T05:42:36.845Z,1021.10
2018-11-29T05:43:36.840Z,1021.08
2018-11-29T05:44:36.828Z,1021.08
2018-11-29T05:45:36.818Z,1021.10
2018-11-29T05:46:36.881Z,1021.08
2018-11-29T05:47:36.794Z,1021.09
2018-11-29T05:48:36.784Z,1021.13
2018-11-29T05:49:36.778Z,1021.15
2018-11-29T05:50:36.756Z,1021.15
2018-11-29T05:51:36.749Z,1021.26
2018-11-29T05:52:36.753Z,1021.21
2018-11-29T05:53:36.726Z,1021.28
2018-11-29T05:54:36.722Z,1021.27
2018-11-29T05:55:36.702Z,1021.28
2018-11-29T05:56:36.715Z,1021.21
2018-11-29T05:57:36.701Z,1021.15
2018-11-29T05:58:36.670Z,1021.24
2018-11-29T05:59:36.664Z,1021.14
2018-11-29T06:00:36.650Z,1021.16
2018-11-29T06:01:36.646Z,1021.18
2018-11-29T06:02:36.650Z,1021.19
2018-11-29T06:03:36.619Z,1021.21
2018-11-29T06:04:36.604Z,1021.19
2018-11-29T06:05:36.602Z,1021.21
2018-11-29T06:06:36.582Z,1021.25
2018-11-29T06:07:36.612Z,1021.15
2018-11-29T06:08:36.562Z,1021.22
2018-11-29T06:09:36.550Z,1021.21
2018-11-29T06:10:36.546Z,1021.23
2018-11-29T06:11:36.530Z,1021.22
2018-11-29T06:12:36.549Z,1021.19
2018-11-29T06:13:36.516Z,1021.12
2018-11-29T06:14:36.496Z,1021.16
2018-11-29T06:15:36.490Z,1021.17
2018-11-29T06:16:36.475Z,1021.19
2018-11-29T06:17:36.494Z,1021.17
2018-11-29T06:18:36.463Z,1021.09
2018-11-29T06:19:36.452Z,1021.11
2018-11-29T06:20:36.436Z,1021.00
2018-11-29T06:21:36.422Z,1021.04
2018-11-29T06:22:36.436Z,1021.01
2018-11-29T06:23:36.409Z,1021.01
2018-11-29T06:24:36.392Z,1021.01
2018-11-29T06:25:36.384Z,1021.07
2018-11-29T06:26:36.391Z,1021.02
2018-11-29T06:27:36.376Z,1021.00
2018-11-29T06:28:36.346Z,1020.95
2018-11-29T06:29:36.340Z,1020.94
2018-11-29T06:30:36.334Z,1020.97
2018-11-29T06:31:36.312Z,1021.06
2018-11-29T06:32:36.367Z,1021.02
2018-11-29T06:33:36.289Z,1020.98
2018-11-29T06:34:36.278Z,1021.05
2018-11-29T06:35:36.273Z,1021.05
2018-11-29T06:36:36.269Z,1021.12
2018-11-29T06:37:36.274Z,1021.14
2018-11-29T06:38:36.238Z,1021.17
2018-11-29T06:39:36.225Z,1021.17
2018-11-29T06:40:36.213Z,1021.16
2018-11-29T06:41:36.210Z,1021.16
2018-11-29T06:42:36.216Z,1021.16
2018-11-29T06:43:36.186Z,1021.16
2018-11-29T06:44:36.178Z,1021.17
2018-11-29T06:45:36.160Z,1021.13
2018-11-29T06:46:36.148Z,1021.09
2018-11-29T06:47:36.146Z,1021.01
2018-11-29T06:48:36.150Z,1020.96
2018-11-29T06:49:36.117Z,1020.98
2018-11-29T06:50:36.113Z,1020.96
2018-11-29T06:51:36.098Z,1020.93
2018-11-29T06:52:36.085Z,1020.94
2018-11-29T06:53:36.096Z,1020.91
2018-11-29T06:54:36.090Z,1020.92
2018-11-29T06:55:36.056Z,1020.86
2018-11-29T06:56:36.042Z,1020.87
2018-11-29T06:57:36.042Z,1020.90
2018-11-29T06:58:36.054Z,1020.86
2018-11-29T06:59:36.020Z,1020.91
2018-11-29T07:00:36.008Z,1020.90
2018-11-29T07:01:36.008Z,1020.96
2018-11-29T07:02:35.980Z,1020.95
2018-11-29T07:03:35.988Z,1020.88
2018-11-29T07:04:35.958Z,1020.97
2018-11-29T07:05:35.967Z,1020.94
2018-11-29T07:06:35.966Z,1020.91
2018-11-29T07:07:35.935Z,1020.85
2018-11-29T07:08:35.926Z,1020.89
2018-11-29T07:09:35.901Z,1020.81
2018-11-29T07:10:35.897Z,1020.83
2018-11-29T07:11:35.887Z,1020.79
2018-11-29T07:12:35.877Z,1020.80
2018-11-29T07:13:35.917Z,1020.80
2018-11-29T07:14:35.850Z,1020.80
2018-11-29T07:15:35.833Z,1020.77
2018-11-29T07:16:35.834Z,1020.84
2018-11-29T07:17:35.822Z,1020.81
2018-11-29T07:18:35.834Z,1020.84
2018-11-29T07:19:35.796Z,1020.89
2018-11-29T07:20:35.788Z,1020.88
2018-11-29T07:21:35.775Z,1020.88
2018-11-29T07:22:35.769Z,1020.91
2018-11-29T07:23:35.779Z,1020.96
2018-11-29T07:24:35.740Z,1020.94
2018-11-29T07:25:35.768Z,1020.91
2018-11-29T07:26:35.730Z,1020.90
2018-11-29T07:27:35.704Z,1020.90
2018-11-29T07:28:35.714Z,1020.84
2018-11-29T07:29:35.688Z,1020.85
2018-11-29T07:30:35.671Z,1020.84
2018-11-29T07:31:35.672Z,1020.75
2018-11-29T07:32:35.661Z,1020.82
2018-11-29T07:33:35.667Z,1020.81
2018-11-29T07:34:35.638Z,1020.79
2018-11-29T07:35:35.618Z,1020.74
2018-11-29T07:36:35.669Z,1020.79
2018-11-29T07:37:35.600Z,1020.75
2018-11-29T07:38:35.608Z,1020.76
2018-11-29T07:39:35.582Z,1020.76
2018-11-29T07:40:35.582Z,1020.72
2018-11-29T07:41:35.552Z,1020.77
2018-11-29T07:42:35.544Z,1020.72
2018-11-29T07:43:35.552Z,1020.77
2018-11-29T07:44:35.518Z,1020.74
2018-11-29T07:45:35.516Z,1020.78
2018-11-29T07:46:35.518Z,1020.81
2018-11-29T07:47:35.492Z,1020.81
2018-11-29T07:48:35.508Z,1020.82
2018-11-29T07:49:35.468Z,1020.80
2018-11-29T07:50:35.465Z,1020.85
2018-11-29T07:51:35.453Z,1020.80
2018-11-29T07:52:35.452Z,1020.82
2018-11-29T07:53:35.448Z,1020.78
2018-11-29T07:54:35.411Z,1020.82
2018-11-29T07:55:35.412Z,1020.80
2018-11-29T07:56:35.396Z,1020.72
2018-11-29T07:57:35.400Z,1020.81
2018-11-29T07:58:35.508Z,1020.84
2018-11-29T07:59:35.515Z,1020.78
2018-11-29T08:00:35.346Z,1020.72
2018-11-29T08:01:35.334Z,1020.72
2018-11-29T08:02:35.331Z,1020.67
2018-11-29T08:03:35.322Z,1020.71
2018-11-29T08:04:35.330Z,1020.64
2018-11-29T08:05:35.290Z,1020.67
2018-11-29T08:06:35.286Z,1020.61
2018-11-29T08:07:35.274Z,1020.62
2018-11-29T08:08:35.278Z,1020.55
2018-11-29T08:09:35.272Z,1020.61
2018-11-29T08:10:35.306Z,1020.62
2018-11-29T08:11:35.228Z,1020.54
2018-11-29T08:12:35.218Z,1020.50
2018-11-29T08:13:35.206Z,1020.53
2018-11-29T08:14:35.213Z,1020.54
2018-11-29T08:15:35.190Z,1020.46
2018-11-29T08:16:35.175Z,1020.49
2018-11-29T08:17:35.162Z,1020.50
2018-11-29T08:18:35.159Z,1020.37
2018-11-29T08:19:35.176Z,1020.47
2018-11-29T08:20:35.143Z,1020.49
2018-11-29T08:21:35.122Z,1020.50
2018-11-29T08:22:35.110Z,1020.50
2018-11-29T08:23:35.100Z,1020.51
2018-11-29T08:24:35.112Z,1020.51
2018-11-29T08:25:35.080Z,1020.56
2018-11-29T08:26:35.065Z,1020.54
2018-11-29T08:27:35.059Z,1020.53
2018-11-29T08:28:35.043Z,1020.51
2018-11-29T08:29:35.194Z,1020.50
2018-11-29T08:30:35.020Z,1020.47
2018-11-29T08:31:35.010Z,1020.50
2018-11-29T08:32:35.008Z,1020.42
2018-11-29T08:33:34.992Z,1020.47
2018-11-29T08:34:34.994Z,1020.42
2018-11-29T08:35:34.971Z,1020.43
2018-11-29T08:36:34.964Z,1020.48
2018-11-29T08:37:34.946Z,1020.45
2018-11-29T08:38:34.935Z,1020.43
2018-11-29T08:39:34.946Z,1020.47
2018-11-29T08:40:34.912Z,1020.44
2018-11-29T08:41:34.900Z,1020.44
2018-11-29T08:42:34.891Z,1020.43
2018-11-29T08:43:34.970Z,1020.41
2018-11-29T08:44:34.892Z,1020.39
2018-11-29T08:45:34.861Z,1020.36
2018-11-29T08:46:34.853Z,1020.34
2018-11-29T08:47:34.836Z,1020.37
2018-11-29T08:48:34.831Z,1020.33
2018-11-29T08:49:34.841Z,1020.29
2018-11-29T08:50:34.810Z,1020.36
2018-11-29T08:51:34.796Z,1020.27
2018-11-29T08:52:34.781Z,1020.24
2018-11-29T08:53:34.792Z,1020.22
2018-11-29T08:54:34.797Z,1020.28
2018-11-29T08:55:34.770Z,1020.20
2018-11-29T08:56:34.741Z,1020.24
2018-11-29T08:57:34.732Z,1020.28
2018-11-29T08:58:34.717Z,1020.27
2018-11-29T08:59:34.740Z,1020.24
2018-11-29T09:00:34.697Z,1020.27
2018-11-29T09:01:34.688Z,1020.34
2018-11-29T09:02:34.681Z,1020.31
2018-11-29T09:03:34.665Z,1020.30
2018-11-29T09:04:34.671Z,1020.29
2018-11-29T09:05:34.641Z,1020.41
2018-11-29T09:06:34.633Z,1020.32
2018-11-29T09:07:34.628Z,1020.32
2018-11-29T09:08:34.605Z,1020.36
2018-11-29T09:09:34.625Z,1020.32
2018-11-29T09:10:34.584Z,1020.34
2018-11-29T09:11:34.577Z,1020.38
2018-11-29T09:12:34.566Z,1020.33
2018-11-29T09:13:34.554Z,1020.32
2018-11-29T09:14:34.543Z,1020.29
2018-11-29T09:15:34.548Z,1020.22
2018-11-29T09:16:34.522Z,1020.22
2018-11-29T09:17:34.510Z,1020.24
2018-11-29T09:18:34.497Z,1020.23
2018-11-29T09:19:37.536Z,1020.24
2018-11-29T09:20:34.493Z,1020.18
2018-11-29T09:21:34.468Z,1020.19
2018-11-29T09:22:34.455Z,1020.16
2018-11-29T09:23:34.445Z,1020.21
2018-11-29T09:24:34.433Z,1020.26
2018-11-29T09:25:34.439Z,1020.28
2018-11-29T09:26:34.408Z,1020.34
2018-11-29T09:27:34.406Z,1020.29
2018-11-29T09:28:34.390Z,1020.24
2018-11-29T09:29:34.380Z,1020.23
2018-11-29T09:30:34.389Z,1020.18
2018-11-29T09:31:34.351Z,1020.15
2018-11-29T09:32:34.360Z,1020.08
2018-11-29T09:33:34.338Z,1020.07
2018-11-29T09:34:34.322Z,1020.07
2018-11-29T09:35:34.324Z,1020.10
2018-11-29T09:36:34.316Z,1020.08
2018-11-29T09:37:34.287Z,1020.08
2018-11-29T09:38:34.280Z,1020.13
2018-11-29T09:39:34.270Z,1020.12
2018-11-29T09:40:34.278Z,1020.10
2018-11-29T09:41:34.249Z,1020.14
2018-11-29T09:42:34.235Z,1020.08
2018-11-29T09:43:34.223Z,1020.07
2018-11-29T09:44:34.219Z,1020.10
2018-11-29T09:45:34.274Z,1020.03
2018-11-29T09:46:34.194Z,1020.01
2018-11-29T09:47:34.179Z,1019.99
2018-11-29T09:48:34.171Z,1020.00
2018-11-29T09:49:34.161Z,1019.97
2018-11-29T09:50:34.160Z,1019.96
2018-11-29T09:51:34.138Z,1019.93
2018-11-29T09:52:34.129Z,1019.93
2018-11-29T09:53:34.122Z,1019.83
2018-11-29T09:54:34.104Z,1019.83
2018-11-29T09:55:34.110Z,1019.80
2018-11-29T09:56:34.084Z,1019.75
2018-11-29T09:57:34.073Z,1019.74
2018-11-29T09:58:34.059Z,1019.69
2018-11-29T09:59:34.052Z,1019.67
2018-11-29T10:00:34.076Z,1019.63
2018-11-29T10:01:34.036Z,1019.61
2018-11-29T10:02:34.043Z,1019.56
2018-11-29T10:03:34.001Z,1019.54
2018-11-29T10:04:33.993Z,1019.52
2018-11-29T10:05:33.995Z,1019.51
2018-11-29T10:06:34.035Z,1019.52
2018-11-29T10:07:34.009Z,1019.50
2018-11-29T10:08:33.962Z,1019.47
2018-11-29T10:09:33.941Z,1019.45
2018-11-29T10:10:33.935Z,1019.50
2018-11-29T10:11:33.953Z,1019.48
2018-11-29T10:12:33.905Z,1019.52
2018-11-29T10:13:33.896Z,1019.49
2018-11-29T10:14:33.892Z,1019.50
2018-11-29T10:15:33.874Z,1019.47
2018-11-29T10:16:33.882Z,1019.55
2018-11-29T10:17:33.857Z,1019.54
2018-11-29T10:18:33.841Z,1019.51
2018-11-29T10:19:33.827Z,1019.52
2018-11-29T10:20:33.819Z,1019.50
2018-11-29T10:21:33.822Z,1019.49
2018-11-29T10:22:33.793Z,1019.51
2018-11-29T10:23:33.787Z,1019.54
2018-11-29T10:24:33.775Z,1019.53
2018-11-29T10:25:33.760Z,1019.48
2018-11-29T10:26:33.767Z,1019.51
2018-11-29T10:27:33.750Z,1019.60
2018-11-29T10:28:33.728Z,1019.52
2018-11-29T10:29:33.722Z,1019.47
2018-11-29T10:30:33.708Z,1019.50
2018-11-29T10:31:33.720Z,1019.51
2018-11-29T10:32:33.688Z,1019.45
2018-11-29T10:33:33.677Z,1019.41
2018-11-29T10:34:33.665Z,1019.46
2018-11-29T10:35:33.650Z,1019.36
2018-11-29T10:36:33.657Z,1019.31
2018-11-29T10:37:33.635Z,1019.29
2018-11-29T10:38:33.622Z,1019.19
2018-11-29T10:39:33.618Z,1019.19
2018-11-29T10:40:33.598Z,1019.21
2018-11-29T10:41:33.741Z,1019.23
2018-11-29T10:42:33.581Z,1019.27
2018-11-29T10:43:33.627Z,1019.23
2018-11-29T10:44:33.557Z,1019.24
2018-11-29T10:45:33.542Z,1019.19
2018-11-29T10:46:33.552Z,1019.22
2018-11-29T10:47:33.521Z,1019.12
2018-11-29T10:48:33.507Z,1019.15
2018-11-29T10:49:33.549Z,1019.15
2018-11-29T10:50:33.495Z,1019.08
2018-11-29T10:51:33.643Z,1019.00
2018-11-29T10:52:33.463Z,1019.03
2018-11-29T10:53:37.688Z,1019.02
2018-11-29T10:54:33.445Z,1018.97
2018-11-29T10:55:33.433Z,1018.99
2018-11-29T10:56:33.541Z,1018.98
2018-11-29T10:57:33.589Z,1018.93
2018-11-29T10:58:33.402Z,1018.90
2018-11-29T10:59:33.389Z,1018.93
2018-11-29T11:00:33.375Z,1018.92
2018-11-29T11:01:33.393Z,1018.89
2018-11-29T11:02:33.367Z,1018.83
2018-11-29T11:03:33.339Z,1018.94
2018-11-29T11:04:33.332Z,1018.98
2018-11-29T11:05:33.325Z,1018.95
2018-11-29T11:06:33.311Z,1018.88
2018-11-29T11:07:33.315Z,1018.91
2018-11-29T11:08:33.359Z,1018.91
2018-11-29T11:09:33.282Z,1018.89
2018-11-29T11:10:33.261Z,1018.92
2018-11-29T11:11:33.257Z,1018.84
2018-11-29T11:12:33.267Z,1018.80
2018-11-29T11:13:33.264Z,1018.83
2018-11-29T11:14:33.217Z,1018.79
2018-11-29T11:15:33.210Z,1018.71
2018-11-29T11:16:33.194Z,1018.84
2018-11-29T11:17:33.206Z,1018.71
2018-11-29T11:18:33.175Z,1018.81
2018-11-29T11:19:33.170Z,1018.78
2018-11-29T11:20:33.152Z,1018.71
2018-11-29T11:21:33.141Z,1018.62
2018-11-29T11:22:33.155Z,1018.75
2018-11-29T11:23:33.115Z,1018.66
2018-11-29T11:24:33.113Z,1018.67
2018-11-29T11:25:33.094Z,1018.75
2018-11-29T11:26:33.080Z,1018.69
2018-11-29T11:27:33.093Z,1018.69
2018-11-29T11:28:33.059Z,1018.64
2018-11-29T11:29:33.056Z,1018.61
2018-11-29T11:30:33.042Z,1018.57
2018-11-29T11:31:33.028Z,1018.58
2018-11-29T11:32:33.032Z,1018.58
2018-11-29T11:33:32.999Z,1018.55
2018-11-29T11:34:32.991Z,1018.59
2018-11-29T11:35:32.985Z,1018.57
2018-11-29T11:36:32.985Z,1018.55
2018-11-29T11:37:32.989Z,1018.50
2018-11-29T11:38:32.965Z,1018.51
2018-11-29T11:39:32.937Z,1018.51
2018-11-29T11:40:32.925Z,1018.58
2018-11-29T11:41:32.922Z,1018.59
2018-11-29T11:42:32.955Z,1018.57
2018-11-29T11:43:32.894Z,1018.59
2018-11-29T11:44:32.883Z,1018.57
2018-11-29T11:45:32.868Z,1018.59
2018-11-29T11:46:32.862Z,1018.56
2018-11-29T11:47:32.863Z,1018.52
2018-11-29T11:48:32.835Z,1018.54
2018-11-29T11:49:32.826Z,1018.52
2018-11-29T11:50:32.814Z,1018.49
2018-11-29T11:51:32.805Z,1018.48
2018-11-29T11:52:33.544Z,1018.55
2018-11-29T11:53:32.791Z,1018.54
2018-11-29T11:54:32.771Z,1018.55
2018-11-29T11:55:32.763Z,1018.53
2018-11-29T11:56:32.747Z,1018.51
2018-11-29T11:57:32.765Z,1018.51
2018-11-29T11:58:32.730Z,1018.52
2018-11-29T11:59:32.713Z,1018.51
2018-11-29T12:00:32.701Z,1018.50
2018-11-29T12:01:32.689Z,1018.47
2018-11-29T12:02:32.819Z,1018.52
2018-11-29T12:03:32.667Z,1018.50
2018-11-29T12:04:32.718Z,1018.48
2018-11-29T12:05:32.647Z,1018.44